| time (UTC) | temp F | wind direction | speed knots | gust knots | rain 1hr in | rain 24hr in | rain mn in | humidity % | barometer mb |
| 20260506044319 | 0 | 0.0 | 0.0 | 0.00 | 0.00 | 0.00 | 1016.1 | ||
| 20260506043816 | 0 | 0.0 | 0.0 | 0.00 | 0.00 | 0.00 | 1016.2 | ||
| 20260506043314 | 0 | 0.0 | 0.0 | 0.00 | 0.00 | 0.00 | 1016.2 | ||
| 20260506042812 | 0 | 0.0 | 0.0 | 0.00 | 0.00 | 0.00 | 1016.2 | ||
| 20260506042311 | 59 | 173 | 0.0 | 0.0 | 0.00 | 0.00 | 0.00 | 99 | 1016.0 |
| 20260506041809 | 59 | 173 | 0.0 | 0.0 | 0.00 | 0.00 | 0.00 | 99 | 1016.1 |
| 20260506041305 | 59 | 173 | 0.0 | 0.0 | 0.00 | 0.00 | 0.00 | 99 | 1016.4 |
| 20260506040802 | 59 | 173 | 0.0 | 0.0 | 0.00 | 0.00 | 0.00 | 99 | 1016.4 |
| 20260506040259 | 59 | 172 | 0.0 | 0.9 | 0.00 | 0.00 | 0.00 | 99 | 1016.5 |
| 20260506035756 | 59 | 170 | 0.0 | 0.0 | 0.00 | 0.00 | 0.00 | 99 | 1016.4 |
| 20260506035253 | 58 | 170 | 0.0 | 0.0 | 0.00 | 0.00 | 0.00 | 99 | 1016.2 |
| 20260506034750 | 58 | 170 | 0.0 | 0.0 | 0.00 | 0.00 | 0.00 | 99 | 1016.6 |
| 20260506034247 | 59 | 170 | 0.0 | 0.0 | 0.00 | 0.00 | 0.00 | 99 | 1016.3 |
| 20260506033744 | 59 | 170 | 0.0 | 0.0 | 0.00 | 0.00 | 0.00 | 99 | 1016.6 |
| 20260506033241 | 59 | 170 | 0.0 | 0.0 | 0.00 | 0.00 | 0.00 | 99 | 1016.5 |
| 20260506032738 | 59 | 170 | 0.0 | 0.0 | 0.00 | 0.00 | 0.00 | 98 | 1016.5 |
| 20260506032235 | 59 | 170 | 0.0 | 0.0 | 0.00 | 0.00 | 0.00 | 98 | 1016.3 |
| 20260506031732 | 60 | 170 | 0.0 | 0.0 | 0.00 | 0.00 | 0.00 | 98 | 1016.6 |
| 20260506031229 | 60 | 170 | 0.0 | 0.0 | 0.00 | 0.00 | 0.00 | 97 | 1016.9 |
| 20260506030727 | 60 | 170 | 0.0 | 0.0 | 0.00 | 0.00 | 0.00 | 97 | 1016.7 |
| 20260506030224 | 60 | 170 | 0.0 | 0.0 | 0.00 | 0.00 | 0.00 | 96 | 1016.6 |
| 20260506025721 | 60 | 171 | 0.0 | 0.0 | 0.00 | 0.00 | 0.00 | 96 | 1016.6 |
| 20260506025217 | 61 | 166 | 0.0 | 0.0 | 0.00 | 0.00 | 0.00 | 95 | 1016.4 |
| 20260506024714 | 61 | 150 | 0.0 | 0.9 | 0.00 | 0.00 | 0.00 | 95 | 1016.5 |
| 20260506024211 | 61 | 151 | 0.0 | 0.0 | 0.00 | 0.00 | 0.00 | 94 | 1016.5 |
| 20260506023707 | 61 | 158 | 0.9 | 0.9 | 0.00 | 0.00 | 0.00 | 94 | 1016.4 |
| 20260506023205 | 61 | 148 | 0.9 | 1.7 | 0.00 | 0.00 | 0.00 | 94 | 1016.4 |
| 20260506022701 | 61 | 163 | 0.0 | 0.9 | 0.00 | 0.00 | 0.00 | 93 | 1016.5 |
| 20260506022159 | 61 | 145 | 0.0 | 0.9 | 0.00 | 0.00 | 0.00 | 93 | 1016.4 |
| 20260506021657 | 61 | 140 | 0.0 | 0.9 | 0.00 | 0.00 | 0.00 | 92 | 1016.5 |
| 20260506021154 | 62 | 158 | 0.0 | 0.0 | 0.00 | 0.00 | 0.00 | 92 | 1016.4 |
| 20260506020651 | 62 | 148 | 0.0 | 0.0 | 0.00 | 0.00 | 0.00 | 91 | 1016.3 |
| 20260506020148 | 62 | 159 | 0.0 | 0.9 | 0.00 | 0.00 | 0.00 | 91 | 1016.4 |
| 20260506015646 | 62 | 148 | 0.9 | 0.9 | 0.00 | 0.00 | 0.00 | 90 | 1016.2 |
| 20260506015143 | 62 | 136 | 0.0 | 0.0 | 0.00 | 0.00 | 0.00 | 89 | 1016.2 |
| 20260506014641 | 63 | 143 | 0.9 | 0.9 | 0.00 | 0.00 | 0.00 | 89 | 1016.3 |
| 20260506014136 | 63 | 136 | 0.0 | 0.0 | 0.00 | 0.00 | 0.00 | 88 | 1016.2 |
| 20260506013634 | 63 | 145 | 0.9 | 1.7 | 0.00 | 0.00 | 0.00 | 88 | 1016.4 |
| 20260506013131 | 63 | 140 | 1.7 | 1.7 | 0.00 | 0.00 | 0.00 | 87 | 1016.3 |
| 20260506012627 | 63 | 154 | 0.0 | 0.9 | 0.00 | 0.00 | 0.00 | 87 | 1016.2 |
| 20260506012123 | 63 | 137 | 0.0 | 0.9 | 0.00 | 0.00 | 0.00 | 86 | 1016.3 |
| 20260506011621 | 63 | 150 | 0.0 | 0.0 | 0.00 | 0.00 | 0.00 | 86 | 1016.2 |
| 20260506011117 | 64 | 174 | 0.9 | 1.7 | 0.00 | 0.00 | 0.00 | 86 | 1016.0 |
| 20260506010611 | 64 | 141 | 0.0 | 0.9 | 0.00 | 0.00 | 0.00 | 86 | 1016.1 |
| 20260506005559 | 64 | 173 | 1.7 | 1.7 | 0.00 | 0.00 | 0.00 | 84 | 1016.0 |
| 20260506005055 | 64 | 148 | 0.0 | 0.0 | 0.00 | 0.00 | 0.00 | 83 | 1015.8 |
| 20260506004553 | 64 | 138 | 0.9 | 0.9 | 0.00 | 0.00 | 0.00 | 83 | 1015.9 |
| 20260506004049 | 65 | 138 | 0.0 | 0.9 | 0.00 | 0.00 | 0.00 | 83 | 1016.0 |
| 20260506003546 | 65 | 130 | 0.0 | 0.0 | 0.00 | 0.00 | 0.00 | 82 | 1015.9 |
| 20260506003042 | 65 | 132 | 0.0 | 0.9 | 0.00 | 0.00 | 0.00 | 81 | 1015.8 |
| 20260506002538 | 65 | 164 | 0.9 | 1.7 | 0.00 | 0.00 | 0.00 | 81 | 1015.9 |
| 20260506002034 | 66 | 144 | 0.9 | 0.9 | 0.00 | 0.00 | 0.00 | 80 | 1016.0 |
| 20260506001530 | 66 | 180 | 0.9 | 1.7 | 0.00 | 0.00 | 0.00 | 79 | 1015.6 |
| 20260506001028 | 66 | 188 | 3.5 | 5.2 | 0.00 | 0.00 | 0.00 | 79 | 1015.6 |
| 20260506000525 | 66 | 124 | 0.0 | 0.0 | 0.00 | 0.00 | 0.00 | 79 | 1015.9 |
| 20260506000022 | 67 | 126 | 1.7 | 2.6 | 0.00 | 0.00 | 0.00 | 78 | 1015.7 |
| 20260505235520 | 67 | 149 | 0.0 | 0.0 | 0.00 | 0.00 | 0.00 | 77 | 1015.8 |
| 20260505235016 | 68 | 174 | 3.5 | 6.1 | 0.00 | 0.00 | 0.00 | 76 | 1015.7 |
| 20260505234513 | 68 | 145 | 0.9 | 0.9 | 0.00 | 0.00 | 0.00 | 75 | 1015.7 |
| 20260505234010 | 68 | 128 | 0.9 | 0.9 | 0.00 | 0.00 | 0.00 | 75 | 1015.6 |
| 20260505233508 | 68 | 193 | 3.5 | 3.5 | 0.00 | 0.00 | 0.00 | 74 | 1015.8 |
| 20260505233005 | 69 | 133 | 1.7 | 1.7 | 0.00 | 0.00 | 0.00 | 74 | 1016.0 |
| 20260505232503 | 69 | 120 | 0.0 | 0.0 | 0.00 | 0.00 | 0.00 | 75 | 1015.8 |
| 20260505232000 | 69 | 155 | 1.7 | 2.6 | 0.00 | 0.00 | 0.00 | 74 | 1015.7 |
| 20260505231457 | 70 | 182 | 5.2 | 7.8 | 0.00 | 0.00 | 0.00 | 72 | 1015.8 |
| 20260505230955 | 70 | 154 | 4.3 | 7.8 | 0.00 | 0.00 | 0.00 | 72 | 1015.7 |
| 20260505230452 | 70 | 189 | 6.1 | 7.8 | 0.00 | 0.00 | 0.00 | 72 | 1015.7 |
| 20260505225948 | 71 | 180 | 5.2 | 7.8 | 0.00 | 0.00 | 0.00 | 72 | 1015.6 |
| 20260505225446 | 71 | 222 | 5.2 | 7.0 | 0.00 | 0.00 | 0.00 | 72 | 1015.7 |
| 20260505224942 | 71 | 126 | 0.9 | 0.9 | 0.00 | 0.00 | 0.00 | 72 | 1015.9 |
| 20260505224439 | 71 | 170 | 1.7 | 3.5 | 0.00 | 0.00 | 0.00 | 71 | 1015.9 |
| 20260505223937 | 72 | 137 | 0.9 | 1.7 | 0.00 | 0.00 | 0.00 | 71 | 1015.8 |
| 20260505223433 | 72 | 109 | 0.9 | 0.9 | 0.00 | 0.00 | 0.00 | 71 | 1015.8 |
| 20260505222930 | 71 | 136 | 1.7 | 5.2 | 0.00 | 0.00 | 0.00 | 71 | 1016.1 |
| 20260505222426 | 72 | 193 | 3.5 | 6.1 | 0.00 | 0.00 | 0.00 | 70 | 1015.8 |
| 20260505221921 | 72 | 358 | 2.6 | 2.6 | 0.00 | 0.00 | 0.00 | 70 | 1015.6 |
| 20260505221419 | 72 | 201 | 4.3 | 5.2 | 0.00 | 0.00 | 0.00 | 70 | 1015.6 |
| 20260505220916 | 72 | 273 | 3.5 | 6.1 | 0.00 | 0.00 | 0.00 | 69 | 1015.6 |
| 20260505220413 | 72 | 269 | 6.1 | 8.7 | 0.00 | 0.00 | 0.00 | 68 | 1015.5 |
| 20260505215910 | 73 | 161 | 1.7 | 2.6 | 0.00 | 0.00 | 0.00 | 69 | 1015.8 |
| 20260505215409 | 73 | 161 | 3.5 | 7.8 | 0.00 | 0.00 | 0.00 | 68 | 1015.5 |
| 20260505214906 | 74 | 185 | 1.7 | 5.2 | 0.00 | 0.00 | 0.00 | 68 | 1015.8 |
| 20260505214403 | 74 | 214 | 4.3 | 6.1 | 0.00 | 0.00 | 0.00 | 68 | 1015.8 |
| 20260505213900 | 74 | 193 | 5.2 | 7.8 | 0.00 | 0.00 | 0.00 | 68 | 1015.6 |
| 20260505213358 | 74 | 125 | 3.5 | 5.2 | 0.00 | 0.00 | 0.00 | 69 | 1015.8 |
| 20260505212854 | 73 | 185 | 5.2 | 7.8 | 0.00 | 0.00 | 0.00 | 68 | 1015.6 |
| 20260505212351 | 74 | 195 | 3.5 | 6.1 | 0.00 | 0.00 | 0.00 | 67 | 1015.6 |
| 20260505211847 | 74 | 144 | 2.6 | 3.5 | 0.00 | 0.00 | 0.00 | 68 | 1015.4 |
| 20260505211345 | 74 | 124 | 6.1 | 7.8 | 0.00 | 0.00 | 0.00 | 67 | 1015.3 |
| 20260505210841 | 74 | 105 | 0.0 | 0.0 | 0.00 | 0.00 | 0.00 | 69 | 1015.5 |
| 20260505210338 | 75 | 262 | 1.7 | 3.5 | 0.00 | 0.00 | 0.00 | 67 | 1015.5 |
| 20260505205835 | 74 | 162 | 4.3 | 7.0 | 0.00 | 0.00 | 0.00 | 68 | 1015.6 |
| 20260505205333 | 74 | 166 | 5.2 | 9.6 | 0.00 | 0.00 | 0.00 | 67 | 1015.5 |
| 20260505204830 | 74 | 131 | 1.7 | 2.6 | 0.00 | 0.00 | 0.00 | 68 | 1015.5 |
| 20260505204328 | 74 | 76 | 1.7 | 3.5 | 0.00 | 0.00 | 0.00 | 69 | 1015.3 |
| 20260505203825 | 75 | 85 | 1.7 | 3.5 | 0.00 | 0.00 | 0.00 | 69 | 1015.6 |
| 20260505203321 | 75 | 155 | 5.2 | 8.7 | 0.00 | 0.00 | 0.00 | 67 | 1015.5 |
| 20260505202818 | 75 | 200 | 5.2 | 7.8 | 0.00 | 0.00 | 0.00 | 67 | 1015.5 |
| 20260505202314 | 74 | 188 | 2.6 | 3.5 | 0.00 | 0.00 | 0.00 | 67 | 1015.7 |
| 20260505201811 | 74 | 176 | 0.9 | 2.6 | 0.00 | 0.00 | 0.00 | 68 | 1015.5 |
| 20260505201308 | 75 | 157 | 1.7 | 3.5 | 0.00 | 0.00 | 0.00 | 67 | 1015.6 |
| 20260505200806 | 75 | 167 | 5.2 | 11.3 | 0.00 | 0.00 | 0.00 | 65 | 1015.5 |
| 20260505200303 | 75 | 23 | 0.9 | 3.5 | 0.00 | 0.00 | 0.00 | 65 | 1015.7 |
| 20260505195758 | 74 | 173 | 5.2 | 7.0 | 0.00 | 0.00 | 0.00 | 65 | 1015.6 |
| 20260505195256 | 76 | 148 | 5.2 | 8.7 | 0.00 | 0.00 | 0.00 | 64 | 1016.0 |
| 20260505194753 | 75 | 195 | 6.1 | 7.8 | 0.00 | 0.00 | 0.00 | 62 | 1016.0 |
| 20260505194250 | 75 | 148 | 1.7 | 1.7 | 0.00 | 0.00 | 0.00 | 62 | 1016.1 |
| 20260505193745 | 76 | 220 | 2.6 | 2.6 | 0.00 | 0.00 | 0.00 | 60 | 1016.1 |
| 20260505193243 | 76 | 191 | 1.7 | 2.6 | 0.00 | 0.00 | 0.00 | 61 | 1016.1 |
| 20260505192741 | 76 | 146 | 1.7 | 5.2 | 0.00 | 0.00 | 0.00 | 62 | 1016.2 |
| 20260505192239 | 77 | 147 | 3.5 | 5.2 | 0.00 | 0.00 | 0.00 | 59 | 1016.1 |
| 20260505191737 | 77 | 294 | 2.6 | 2.6 | 0.00 | 0.00 | 0.00 | 61 | 1016.2 |
| 20260505191235 | 76 | 208 | 2.6 | 7.8 | 0.00 | 0.00 | 0.00 | 59 | 1016.4 |
| 20260505190731 | 77 | 256 | 1.7 | 1.7 | 0.00 | 0.00 | 0.00 | 60 | 1016.2 |
| 20260505190226 | 75 | 234 | 0.9 | 2.6 | 0.00 | 0.00 | 0.00 | 61 | 1016.1 |
| 20260505185722 | 77 | 154 | 1.7 | 5.2 | 0.00 | 0.00 | 0.00 | 60 | 1016.5 |
| 20260505185219 | 76 | 112 | 2.6 | 3.5 | 0.00 | 0.00 | 0.00 | 62 | 1016.5 |
| 20260505184715 | 76 | 121 | 6.1 | 11.3 | 0.00 | 0.00 | 0.00 | 60 | 1016.5 |
| 20260505184213 | 77 | 182 | 3.5 | 5.2 | 0.00 | 0.00 | 0.00 | 61 | 1016.4 |
| 20260505183709 | 77 | 169 | 3.5 | 5.2 | 0.00 | 0.00 | 0.00 | 62 | 1016.6 |
| 20260505183207 | 77 | 202 | 6.1 | 7.8 | 0.00 | 0.00 | 0.00 | 61 | 1016.7 |
| 20260505182702 | 77 | 140 | 2.6 | 2.6 | 0.00 | 0.00 | 0.00 | 61 | 1016.5 |
| 20260505182159 | 77 | 149 | 7.0 | 9.6 | 0.00 | 0.00 | 0.00 | 61 | 1016.7 |
| 20260505181655 | 77 | 176 | 1.7 | 1.7 | 0.00 | 0.00 | 0.00 | 63 | 1016.8 |
| 20260505181153 | 76 | 146 | 1.7 | 2.6 | 0.00 | 0.00 | 0.00 | 63 | 1016.7 |
| 20260505180644 | 77 | 189 | 7.0 | 8.7 | 0.00 | 0.00 | 0.00 | 61 | 1016.5 |
| 20260505180141 | 76 | 167 | 4.3 | 6.1 | 0.00 | 0.00 | 0.00 | 62 | 1016.4 |
| 20260505175636 | 77 | 111 | 4.3 | 7.8 | 0.00 | 0.00 | 0.00 | 62 | 1016.8 |
| 20260505175128 | 76 | 124 | 3.5 | 5.2 | 0.00 | 0.00 | 0.00 | 62 | 1016.6 |
| 20260505174625 | 75 | 184 | 2.6 | 5.2 | 0.00 | 0.00 | 0.00 | 65 | 1016.6 |
| 20260505174121 | 75 | 173 | 1.7 | 2.6 | 0.00 | 0.00 | 0.00 | 66 | 1016.7 |
| 20260505173617 | 76 | 163 | 3.5 | 6.1 | 0.00 | 0.00 | 0.00 | 63 | 1016.8 |
| 20260505173114 | 76 | 122 | 3.5 | 5.2 | 0.00 | 0.00 | 0.00 | 63 | 1016.8 |
| 20260505172612 | 77 | 188 | 1.7 | 2.6 | 0.00 | 0.00 | 0.00 | 64 | 1016.8 |
| 20260505172108 | 75 | 172 | 0.0 | 0.9 | 0.00 | 0.00 | 0.00 | 67 | 1016.8 |
| 20260505171603 | 75 | 135 | 1.7 | 3.5 | 0.00 | 0.00 | 0.00 | 66 | 1016.6 |
| 20260505171100 | 75 | 229 | 3.5 | 5.2 | 0.00 | 0.00 | 0.00 | 65 | 1016.8 |
| 20260505170557 | 77 | 142 | 3.5 | 5.2 | 0.00 | 0.00 | 0.00 | 63 | 1016.6 |
| 20260505170054 | 76 | 148 | 1.7 | 1.7 | 0.00 | 0.00 | 0.00 | 65 | 1016.7 |
| 20260505165549 | 75 | 172 | 8.7 | 8.7 | 0.00 | 0.00 | 0.00 | 63 | 1016.8 |
| 20260505165045 | 75 | 150 | 4.3 | 6.1 | 0.00 | 0.00 | 0.00 | 64 | 1016.8 |
| 20260505164540 | 76 | 83 | 0.0 | 0.0 | 0.00 | 0.00 | 0.00 | 64 | 1017.0 |
| 20260505164038 | 75 | 143 | 1.7 | 2.6 | 0.00 | 0.00 | 0.00 | 65 | 1016.9 |
| 20260505163537 | 76 | 197 | 1.7 | 2.6 | 0.00 | 0.00 | 0.00 | 61 | 1016.7 |
| 20260505163033 | 76 | 195 | 6.1 | 8.7 | 0.00 | 0.00 | 0.00 | 63 | 1017.1 |
| 20260505162526 | 75 | 160 | 1.7 | 2.6 | 0.00 | 0.00 | 0.00 | 63 | 1017.0 |
| 20260505162023 | 75 | 135 | 3.5 | 3.5 | 0.00 | 0.00 | 0.00 | 60 | 1017.1 |
| 20260505161520 | 76 | 180 | 2.6 | 3.5 | 0.00 | 0.00 | 0.00 | 64 | 1017.2 |
| 20260505161017 | 76 | 239 | 4.3 | 6.1 | 0.00 | 0.00 | 0.00 | 62 | 1017.2 |
| 20260505160515 | 75 | 108 | 3.5 | 8.7 | 0.00 | 0.00 | 0.00 | 63 | 1017.1 |
| 20260505152951 | 74 | 143 | 2.6 | 2.6 | 0.00 | 0.00 | 0.00 | 68 | 1017.4 |
| 20260505152449 | 73 | 212 | 3.5 | 3.5 | 0.00 | 0.00 | 0.00 | 68 | 1017.6 |
| 20260505151944 | 74 | 176 | 2.6 | 2.6 | 0.00 | 0.00 | 0.00 | 65 | 1017.5 |
| 20260505151439 | 73 | 156 | 0.9 | 0.9 | 0.00 | 0.00 | 0.00 | 68 | 1017.5 |
| 20260505150936 | 74 | 226 | 4.3 | 6.1 | 0.00 | 0.00 | 0.00 | 67 | 1017.6 |
| 20260505150428 | 73 | 189 | 0.0 | 0.9 | 0.00 | 0.00 | 0.00 | 65 | 1017.9 |
| 20260505140358 | 71 | 207 | 3.5 | 5.2 | 0.00 | 0.00 | 0.00 | 73 | 1017.6 |
| 20260505124812 | 67 | 197 | 0.9 | 0.9 | 0.00 | 0.00 | 0.00 | 84 | 1017.7 |
| 20260505124309 | 66 | 229 | 1.7 | 2.6 | 0.00 | 0.00 | 0.00 | 85 | 1017.7 |
| 20260505123804 | 66 | 183 | 3.5 | 5.2 | 0.00 | 0.00 | 0.00 | 85 | 1017.7 |
| 20260505123301 | 65 | 153 | 0.0 | 0.9 | 0.00 | 0.00 | 0.00 | 87 | 1017.4 |
| 20260505122757 | 64 | 123 | 0.0 | 0.0 | 0.00 | 0.00 | 0.00 | 88 | 1017.6 |
| 20260505122255 | 64 | 199 | 3.5 | 5.2 | 0.00 | 0.00 | 0.00 | 88 | 1017.7 |
| 20260505121751 | 64 | 155 | 0.9 | 0.9 | 0.00 | 0.00 | 0.00 | 88 | 1017.6 |
| 20260505121248 | 63 | 163 | 0.9 | 0.9 | 0.00 | 0.00 | 0.00 | 89 | 1017.7 |
| 20260505120744 | 62 | 156 | 0.9 | 0.9 | 0.00 | 0.00 | 0.00 | 89 | 1017.5 |
| 20260505120241 | 62 | 203 | 1.7 | 1.7 | 0.00 | 0.00 | 0.00 | 88 | 1017.5 |
| 20260505115739 | 62 | 202 | 0.0 | 0.0 | 0.00 | 0.00 | 0.00 | 91 | 1017.7 |
| 20260505115237 | 60 | 202 | 0.0 | 0.0 | 0.00 | 0.00 | 0.00 | 94 | 1017.7 |
| 20260505114734 | 59 | 203 | 0.0 | 0.0 | 0.00 | 0.00 | 0.00 | 96 | 1017.6 |
| 20260505114230 | 58 | 202 | 0.0 | 0.0 | 0.00 | 0.00 | 0.00 | 99 | 1017.3 |
| 20260505113727 | 56 | 203 | 0.0 | 0.9 | 0.00 | 0.00 | 0.00 | 99 | 1017.4 |
| 20260505113224 | 55 | 203 | 0.0 | 0.0 | 0.00 | 0.00 | 0.00 | 99 | 1017.3 |
| 20260505112720 | 55 | 203 | 0.0 | 0.0 | 0.00 | 0.00 | 0.00 | 99 | 1017.2 |
| 20260505112218 | 54 | 203 | 0.0 | 0.0 | 0.00 | 0.00 | 0.00 | 99 | 1017.4 |
| 20260505111717 | 53 | 203 | 0.0 | 0.0 | 0.00 | 0.00 | 0.00 | 99 | 1017.3 |
| 20260505111214 | 53 | 203 | 0.0 | 0.0 | 0.00 | 0.00 | 0.00 | 99 | 1017.1 |
| 20260505110709 | 52 | 203 | 0.0 | 0.0 | 0.00 | 0.00 | 0.00 | 99 | 1017.0 |
| 20260505110207 | 51 | 203 | 0.0 | 0.0 | 0.00 | 0.00 | 0.00 | 99 | 1017.1 |
| 20260505102143 | 48 | 202 | 0.0 | 0.0 | 0.00 | 0.00 | 0.00 | 99 | 1016.5 |
| 20260505101642 | 48 | 202 | 0.0 | 0.0 | 0.00 | 0.00 | 0.00 | 99 | 1016.5 |
| 20260505101137 | 48 | 202 | 0.0 | 0.0 | 0.00 | 0.00 | 0.00 | 99 | 1016.5 |
| 20260505100633 | 49 | 202 | 0.0 | 0.0 | 0.00 | 0.00 | 0.00 | 99 | 1016.4 |
| 20260505100130 | 50 | 202 | 0.0 | 0.0 | 0.00 | 0.00 | 0.00 | 99 | 1016.5 |
| 20260505095626 | 50 | 202 | 0.0 | 0.0 | 0.00 | 0.00 | 0.00 | 99 | 1016.1 |
| 20260505095124 | 49 | 202 | 0.0 | 0.0 | 0.00 | 0.00 | 0.00 | 99 | 1016.2 |
| 20260505094620 | 49 | 202 | 0.0 | 0.0 | 0.00 | 0.00 | 0.00 | 99 | 1016.1 |
| 20260505094116 | 50 | 202 | 0.0 | 0.0 | 0.00 | 0.00 | 0.00 | 99 | 1016.1 |
| 20260505093613 | 50 | 202 | 0.0 | 0.0 | 0.00 | 0.00 | 0.00 | 99 | 1016.1 |
| 20260505093110 | 50 | 202 | 0.0 | 0.0 | 0.00 | 0.00 | 0.00 | 99 | 1016.1 |
| 20260505092607 | 50 | 202 | 0.0 | 0.0 | 0.00 | 0.00 | 0.00 | 99 | 1016.1 |
| 20260505092106 | 50 | 202 | 0.0 | 0.0 | 0.00 | 0.00 | 0.00 | 99 | 1015.8 |
| 20260505091602 | 50 | 202 | 0.0 | 0.0 | 0.00 | 0.00 | 0.00 | 99 | 1015.9 |
| 20260505091101 | 50 | 202 | 0.0 | 0.0 | 0.00 | 0.00 | 0.00 | 99 | 1016.0 |
| 20260505090558 | 49 | 202 | 0.0 | 0.0 | 0.00 | 0.00 | 0.00 | 99 | 1016.1 |
| 20260505090056 | 49 | 202 | 0.0 | 0.0 | 0.00 | 0.00 | 0.00 | 99 | 1015.8 |
| 20260505085553 | 50 | 202 | 0.0 | 0.0 | 0.00 | 0.00 | 0.00 | 99 | 1015.8 |
| 20260505085051 | 49 | 202 | 0.0 | 0.0 | 0.00 | 0.00 | 0.00 | 99 | 1015.7 |
| 20260505084549 | 50 | 202 | 0.0 | 0.0 | 0.00 | 0.00 | 0.00 | 99 | 1015.6 |
| 20260505084047 | 50 | 202 | 0.0 | 0.0 | 0.00 | 0.00 | 0.00 | 99 | 1015.7 |
| 20260505083544 | 50 | 202 | 0.0 | 0.0 | 0.00 | 0.00 | 0.00 | 99 | 1015.9 |
| 20260505083040 | 50 | 202 | 0.0 | 0.0 | 0.00 | 0.00 | 0.00 | 99 | 1015.6 |
| 20260505082536 | 50 | 202 | 0.0 | 0.0 | 0.00 | 0.00 | 0.00 | 99 | 1015.8 |
| 20260505082033 | 50 | 203 | 0.0 | 0.0 | 0.00 | 0.00 | 0.00 | 99 | 1015.8 |
| 20260505081530 | 50 | 203 | 0.0 | 0.0 | 0.00 | 0.00 | 0.00 | 99 | 1015.8 |
| 20260505081027 | 50 | 203 | 0.0 | 0.0 | 0.00 | 0.00 | 0.00 | 99 | 1015.7 |
| 20260505080523 | 50 | 203 | 0.0 | 0.0 | 0.00 | 0.00 | 0.00 | 99 | 1015.9 |
| 20260505080020 | 51 | 203 | 0.0 | 0.0 | 0.00 | 0.00 | 0.00 | 99 | 1015.5 |
| 20260505075516 | 52 | 203 | 0.0 | 0.0 | 0.00 | 0.00 | 0.00 | 99 | 1015.9 |
| 20260505075013 | 52 | 203 | 0.0 | 0.9 | 0.00 | 0.00 | 0.00 | 99 | 1015.7 |
| 20260505074510 | 52 | 197 | 0.0 | 0.0 | 0.00 | 0.00 | 0.00 | 98 | 1015.6 |
| 20260505074007 | 52 | 198 | 0.0 | 0.9 | 0.00 | 0.00 | 0.00 | 99 | 1015.6 |
| 20260505073504 | 52 | 198 | 0.0 | 0.0 | 0.00 | 0.00 | 0.00 | 99 | 1015.6 |
| 20260505073003 | 51 | 198 | 0.0 | 0.0 | 0.00 | 0.00 | 0.00 | 99 | 1015.4 |
| 20260505072458 | 52 | 198 | 0.0 | 0.0 | 0.00 | 0.00 | 0.00 | 99 | 1015.5 |
| 20260505071954 | 52 | 198 | 0.9 | 0.9 | 0.00 | 0.00 | 0.00 | 99 | 1015.5 |
| 20260505071450 | 51 | 197 | 0.0 | 0.9 | 0.00 | 0.00 | 0.00 | 99 | 1015.4 |
| 20260505070948 | 52 | 196 | 0.0 | 0.0 | 0.00 | 0.00 | 0.00 | 99 | 1015.5 |
| 20260505070445 | 51 | 196 | 0.0 | 0.0 | 0.00 | 0.00 | 0.00 | 99 | 1015.6 |
| 20260505065940 | 51 | 196 | 0.0 | 0.0 | 0.00 | 0.00 | 0.00 | 99 | 1015.6 |
| 20260505065437 | 51 | 196 | 0.0 | 0.0 | 0.00 | 0.00 | 0.00 | 98 | 1015.6 |
| 20260505064934 | 51 | 196 | 0.0 | 0.0 | 0.00 | 0.00 | 0.00 | 97 | 1015.8 |
| 20260505064431 | 52 | 196 | 0.0 | 0.0 | 0.00 | 0.00 | 0.00 | 97 | 1015.7 |
| 20260505063929 | 52 | 196 | 0.0 | 0.0 | 0.00 | 0.00 | 0.00 | 96 | 1015.7 |
| 20260505063425 | 52 | 196 | 0.0 | 0.0 | 0.00 | 0.00 | 0.00 | 96 | 1015.7 |
| 20260505062922 | 53 | 196 | 0.0 | 0.0 | 0.00 | 0.00 | 0.00 | 96 | 1015.8 |
| 20260505062419 | 54 | 196 | 0.0 | 0.0 | 0.00 | 0.00 | 0.00 | 96 | 1015.9 |
| 20260505061916 | 54 | 196 | 0.0 | 0.0 | 0.00 | 0.00 | 0.00 | 96 | 1015.6 |
| 20260505061414 | 54 | 196 | 0.0 | 0.0 | 0.00 | 0.00 | 0.00 | 95 | 1015.6 |
| 20260505060911 | 54 | 196 | 0.0 | 0.0 | 0.00 | 0.00 | 0.00 | 95 | 1015.9 |
| 20260505060408 | 54 | 196 | 0.0 | 0.0 | 0.00 | 0.00 | 0.00 | 94 | 1015.8 |
| 20260505055904 | 55 | 196 | 0.0 | 0.9 | 0.00 | 0.00 | 0.00 | 94 | 1015.8 |
| 20260505055400 | 55 | 196 | 0.0 | 0.0 | 0.00 | 0.00 | 0.00 | 94 | 1016.1 |
| 20260505054857 | 55 | 196 | 0.0 | 0.0 | 0.00 | 0.00 | 0.00 | 93 | 1016.1 |
| 20260505054354 | 55 | 195 | 0.9 | 0.9 | 0.00 | 0.00 | 0.00 | 93 | 1016.1 |
| 20260505053853 | 55 | 202 | 0.0 | 0.0 | 0.00 | 0.00 | 0.00 | 93 | 1015.9 |
| 20260505053350 | 55 | 202 | 0.0 | 0.0 | 0.00 | 0.00 | 0.00 | 93 | 1015.9 |
| 20260505052846 | 55 | 199 | 0.0 | 0.0 | 0.00 | 0.00 | 0.00 | 93 | 1016.2 |
| 20260505052343 | 55 | 193 | 0.0 | 0.9 | 0.00 | 0.00 | 0.00 | 93 | 1016.0 |
| 20260505051840 | 55 | 197 | 0.9 | 1.7 | 0.00 | 0.00 | 0.00 | 93 | 1016.0 |
| 20260505051337 | 55 | 189 | 0.0 | 0.9 | 0.00 | 0.00 | 0.00 | 92 | 1016.2 |
| 20260505050836 | 55 | 173 | 0.0 | 0.9 | 0.00 | 0.00 | 0.00 | 92 | 1016.1 |
| 20260505050334 | 55 | 190 | 0.0 | 0.0 | 0.00 | 0.00 | 0.00 | 92 | 1016.2 |